createdAt,value
2023-04-12T00:00:08.178Z,44.64
2023-04-12T00:01:08.198Z,46.36
2023-04-12T00:02:08.219Z,46.45
2023-04-12T00:03:07.264Z,46.24
2023-04-12T00:04:07.423Z,48.98
2023-04-12T00:05:08.338Z,47.52
2023-04-12T00:06:08.246Z,46.12
2023-04-12T00:07:08.256Z,46.22
2023-04-12T00:08:07.268Z,45.95
2023-04-12T00:09:08.299Z,44.60
2023-04-12T00:10:07.308Z,45.10
2023-04-12T00:11:08.294Z,44.13
2023-04-12T00:12:08.295Z,42.83
2023-04-12T00:13:08.303Z,45.16
2023-04-12T00:14:08.366Z,43.07
2023-04-12T00:15:08.493Z,44.61
2023-04-12T00:16:07.371Z,44.11
2023-04-12T00:17:08.335Z,44.35
2023-04-12T00:18:08.334Z,47.27
2023-04-12T00:19:08.362Z,44.38
2023-04-12T00:20:08.351Z,46.03
2023-04-12T00:21:07.388Z,45.43
2023-04-12T00:22:07.381Z,44.55
2023-04-12T00:23:07.395Z,40.39
2023-04-12T00:24:08.401Z,42.58
2023-04-12T00:25:07.421Z,41.88
2023-04-12T00:26:08.441Z,42.63
2023-04-12T00:27:08.428Z,44.60
2023-04-12T00:28:07.433Z,43.69
2023-04-12T00:29:07.457Z,41.90
2023-04-12T00:30:07.470Z,41.28
2023-04-12T00:31:08.455Z,40.51
2023-04-12T00:32:07.454Z,41.57
2023-04-12T00:33:08.455Z,41.64
2023-04-12T00:34:07.480Z,41.42
2023-04-12T00:35:08.475Z,39.27
2023-04-12T00:36:08.543Z,42.04
2023-04-12T00:37:08.489Z,43.31
2023-04-12T00:38:08.490Z,39.40
2023-04-12T00:39:08.509Z,41.20
2023-04-12T00:40:08.508Z,38.59
2023-04-12T00:41:08.513Z,40.89
2023-04-12T00:42:08.533Z,40.67
2023-04-12T00:43:07.509Z,40.14
2023-04-12T00:44:08.522Z,38.48
2023-04-12T00:45:07.532Z,41.17
2023-04-12T00:46:07.647Z,40.37
2023-04-12T00:47:08.746Z,40.49
2023-04-12T00:48:08.545Z,37.65
2023-04-12T00:49:08.549Z,38.92
2023-04-12T00:50:08.594Z,38.03
2023-04-12T00:51:07.563Z,41.22
2023-04-12T00:52:08.639Z,38.82
2023-04-12T00:53:08.574Z,38.76
2023-04-12T00:54:07.574Z,39.27
2023-04-12T00:55:08.569Z,38.35
2023-04-12T00:56:08.584Z,39.10
2023-04-12T00:57:08.581Z,38.90
2023-04-12T00:58:08.607Z,39.51
2023-04-12T00:59:07.627Z,37.57
2023-04-12T01:00:08.608Z,37.07
2023-04-12T01:01:07.645Z,39.40
2023-04-12T01:02:08.727Z,37.14
2023-04-12T01:03:08.932Z,38.11
2023-04-12T01:04:08.703Z,36.20
2023-04-12T01:05:08.613Z,37.55
2023-04-12T01:06:07.616Z,36.72
2023-04-12T01:07:07.619Z,38.78
2023-04-12T01:08:08.630Z,37.17
2023-04-12T01:09:08.640Z,38.33
2023-04-12T01:10:07.616Z,36.63
2023-04-12T01:11:08.628Z,35.18
2023-04-12T01:12:07.626Z,36.28
2023-04-12T01:13:07.650Z,34.83
2023-04-12T01:14:07.663Z,37.37
2023-04-12T01:15:08.655Z,36.26
2023-04-12T01:16:07.678Z,35.63
2023-04-12T01:17:08.635Z,37.21
2023-04-12T01:18:08.635Z,37.20
2023-04-12T01:19:08.624Z,34.13
2023-04-12T01:20:07.630Z,36.01
2023-04-12T01:21:07.610Z,35.66
2023-04-12T01:22:07.610Z,35.53
2023-04-12T01:23:08.598Z,35.17
2023-04-12T01:24:08.598Z,33.41
2023-04-12T01:25:07.624Z,34.38
2023-04-12T01:26:08.626Z,34.94
2023-04-12T01:27:08.614Z,34.53
2023-04-12T01:28:08.603Z,34.07
2023-04-12T01:29:08.598Z,33.57
2023-04-12T01:30:08.642Z,33.13
2023-04-12T01:31:08.616Z,33.48
2023-04-12T01:32:09.309Z,32.28
2023-04-12T01:33:08.664Z,31.95
2023-04-12T01:34:07.612Z,32.57
2023-04-12T01:35:07.610Z,33.21
2023-04-12T01:36:07.777Z,30.63
2023-04-12T01:37:08.617Z,31.97
2023-04-12T01:38:08.605Z,31.93
2023-04-12T01:39:08.606Z,32.98
2023-04-12T01:40:08.625Z,30.49
2023-04-12T01:41:08.625Z,32.62
2023-04-12T01:42:07.626Z,32.84
2023-04-12T01:43:08.648Z,32.44
2023-04-12T01:44:08.647Z,30.82
2023-04-12T01:45:08.689Z,33.51
2023-04-12T01:46:07.746Z,29.73
2023-04-12T01:47:07.676Z,30.63
2023-04-12T01:48:08.792Z,29.69
2023-04-12T01:49:09.312Z,30.24
2023-04-12T01:50:07.739Z,30.22
2023-04-12T01:51:07.758Z,28.30
2023-04-12T01:52:07.786Z,29.18
2023-04-12T01:53:08.782Z,30.93
2023-04-12T01:54:07.779Z,29.53
2023-04-12T01:55:08.802Z,29.49
2023-04-12T01:56:08.832Z,30.17
2023-04-12T01:57:08.850Z,29.17
2023-04-12T01:58:07.869Z,28.76
2023-04-12T01:59:07.894Z,29.15
2023-04-12T02:00:07.919Z,29.26
2023-04-12T02:01:08.972Z,30.87
2023-04-12T02:02:09.088Z,30.99
2023-04-12T02:03:08.124Z,32.12
2023-04-12T02:04:09.036Z,27.94
2023-04-12T02:05:09.042Z,28.77
2023-04-12T02:06:09.008Z,27.77
2023-04-12T02:07:08.033Z,28.58
2023-04-12T02:08:09.038Z,28.21
2023-04-12T02:09:09.055Z,28.02
2023-04-12T02:10:09.093Z,28.38
2023-04-12T02:11:08.091Z,25.00
2023-04-12T02:12:09.112Z,28.48
2023-04-12T02:13:08.152Z,30.25
2023-04-12T02:14:09.153Z,30.47
2023-04-12T02:15:09.191Z,29.50
2023-04-12T02:16:09.198Z,27.80
2023-04-12T02:17:09.232Z,30.06
2023-04-12T02:18:09.333Z,29.34
2023-04-12T02:19:08.292Z,28.75
2023-04-12T02:20:08.328Z,28.34
2023-04-12T02:21:09.451Z,27.94
2023-04-12T02:22:09.394Z,29.78
2023-04-12T02:23:09.418Z,26.62
2023-04-12T02:24:09.481Z,25.86
2023-04-12T02:25:08.507Z,31.62
2023-04-12T02:26:09.597Z,29.17
2023-04-12T02:27:09.570Z,29.16
2023-04-12T02:28:09.580Z,28.22
2023-04-12T02:29:09.615Z,28.01
2023-04-12T02:30:09.629Z,27.78
2023-04-12T02:31:09.728Z,28.16
2023-04-12T02:32:09.699Z,28.38
2023-04-12T02:33:09.828Z,27.81
2023-04-12T02:34:09.773Z,27.44
2023-04-12T02:35:09.777Z,27.42
2023-04-12T02:36:09.809Z,26.69
2023-04-12T02:37:09.832Z,29.65
2023-04-12T02:38:09.841Z,26.75
2023-04-12T02:39:09.890Z,27.43
2023-04-12T02:40:08.914Z,27.56
2023-04-12T02:41:09.930Z,29.30
2023-04-12T02:42:09.973Z,27.16
2023-04-12T02:43:10.008Z,27.85
2023-04-12T02:44:10.078Z,26.79
2023-04-12T02:45:10.050Z,25.52
2023-04-12T02:46:10.180Z,28.20
2023-04-12T02:47:10.114Z,28.96
2023-04-12T02:48:10.188Z,28.52
2023-04-12T02:49:09.204Z,27.28
2023-04-12T02:50:09.257Z,29.04
2023-04-12T02:51:09.312Z,27.47
2023-04-12T02:52:10.344Z,30.86
2023-04-12T02:53:10.377Z,28.77
2023-04-12T02:54:10.420Z,26.83
2023-04-12T02:55:10.457Z,25.85
2023-04-12T02:56:09.513Z,29.14
2023-04-12T02:57:10.551Z,27.78
2023-04-12T02:58:10.599Z,29.08
2023-04-12T02:59:09.653Z,28.63
2023-04-12T03:00:10.710Z,28.93
2023-04-12T03:01:10.813Z,25.40
2023-04-12T03:02:10.945Z,28.68
2023-04-12T03:03:11.046Z,27.59
2023-04-12T03:04:09.951Z,31.46
2023-04-12T03:05:09.921Z,27.54
2023-04-12T03:06:09.989Z,29.55
2023-04-12T03:07:11.019Z,28.20
2023-04-12T03:08:11.065Z,30.55
2023-04-12T03:09:10.108Z,29.44
2023-04-12T03:10:10.158Z,25.00
2023-04-12T03:11:11.185Z,29.85
2023-04-12T03:12:11.223Z,30.57
2023-04-12T03:13:11.277Z,30.29
2023-04-12T03:14:11.322Z,31.06
2023-04-12T03:15:10.361Z,29.68
2023-04-12T03:16:10.499Z,29.34
2023-04-12T03:17:10.442Z,28.28
2023-04-12T03:18:11.555Z,26.81
2023-04-12T03:19:11.546Z,29.76
2023-04-12T03:20:10.666Z,28.73
2023-04-12T03:21:10.602Z,28.12
2023-04-12T03:22:10.660Z,29.39
2023-04-12T03:23:11.679Z,26.39
2023-04-12T03:24:10.749Z,26.47
2023-04-12T03:25:11.781Z,27.27
2023-04-12T03:26:11.827Z,28.06
2023-04-12T03:27:10.892Z,29.37
2023-04-12T03:28:11.924Z,27.16
2023-04-12T03:29:11.970Z,29.50
2023-04-12T03:30:12.029Z,29.91
2023-04-12T03:31:11.080Z,28.54
2023-04-12T03:32:11.095Z,29.16
2023-04-12T03:33:11.132Z,29.22
2023-04-12T03:34:12.180Z,30.88
2023-04-12T03:35:12.240Z,29.39
2023-04-12T03:36:11.287Z,30.46
2023-04-12T03:37:12.558Z,29.60
2023-04-12T03:38:11.397Z,29.54
2023-04-12T03:39:12.433Z,29.24
2023-04-12T03:40:12.473Z,30.59
2023-04-12T03:41:12.503Z,28.76
2023-04-12T03:42:25.459Z,27.83
2023-04-12T03:43:12.531Z,28.16
2023-04-12T03:44:12.530Z,29.19
2023-04-12T03:45:12.525Z,30.05
2023-04-12T03:46:12.586Z,30.20
2023-04-12T03:47:11.529Z,31.23
2023-04-12T03:48:11.502Z,32.91
2023-04-12T03:49:12.487Z,32.56
2023-04-12T03:50:12.547Z,33.72
2023-04-12T03:51:12.490Z,31.54
2023-04-12T03:52:12.538Z,30.82
2023-04-12T03:53:12.493Z,27.34
2023-04-12T03:54:11.478Z,28.01
2023-04-12T03:55:12.447Z,27.45
2023-04-12T03:56:12.449Z,26.86
2023-04-12T03:57:11.447Z,25.00
2023-04-12T03:58:11.424Z,30.35
2023-04-12T03:59:11.416Z,29.29
2023-04-12T04:00:12.437Z,26.69
2023-04-12T04:01:11.417Z,29.65
2023-04-12T04:02:12.448Z,28.32
2023-04-12T04:03:12.479Z,26.93
2023-04-12T04:04:11.503Z,30.51
2023-04-12T04:05:12.431Z,28.59
2023-04-12T04:06:11.382Z,28.58
2023-04-12T04:07:12.409Z,26.46
2023-04-12T04:08:11.364Z,27.98
2023-04-12T04:09:12.380Z,27.21
2023-04-12T04:10:12.338Z,26.67
2023-04-12T04:11:12.381Z,28.00
2023-04-12T04:12:12.329Z,28.72
2023-04-12T04:13:12.333Z,26.68
2023-04-12T04:14:12.339Z,30.01
2023-04-12T04:15:12.385Z,29.80
2023-04-12T04:16:11.441Z,25.20
2023-04-12T04:17:12.447Z,27.21
2023-04-12T04:18:12.493Z,25.00
2023-04-12T04:19:12.522Z,26.04
2023-04-12T04:20:12.573Z,29.50
2023-04-12T04:21:12.598Z,30.47
2023-04-12T04:22:12.651Z,28.33
2023-04-12T04:23:12.695Z,29.13
2023-04-12T04:24:12.731Z,27.37
2023-04-12T04:25:12.819Z,27.60
2023-04-12T04:26:11.856Z,31.28
2023-04-12T04:27:12.890Z,29.47
2023-04-12T04:28:11.895Z,28.67
2023-04-12T04:29:12.953Z,28.10
2023-04-12T04:30:12.000Z,30.38
2023-04-12T04:31:13.161Z,27.80
2023-04-12T04:32:12.248Z,30.78
2023-04-12T04:33:13.146Z,29.84
2023-04-12T04:34:13.187Z,29.22
2023-04-12T04:35:13.226Z,28.03
2023-04-12T04:36:13.277Z,27.35
2023-04-12T04:37:13.317Z,28.66
2023-04-12T04:38:13.344Z,28.03
2023-04-12T04:39:12.397Z,30.36
2023-04-12T04:40:13.441Z,31.86
2023-04-12T04:41:12.522Z,30.69
2023-04-12T04:42:13.528Z,29.84
2023-04-12T04:43:13.579Z,28.59
2023-04-12T04:44:13.638Z,30.56
2023-04-12T04:45:12.689Z,30.50
2023-04-12T04:46:12.828Z,31.24
2023-04-12T04:47:12.756Z,28.83
2023-04-12T04:48:13.779Z,27.72
2023-04-12T04:49:13.830Z,29.20
2023-04-12T04:50:12.869Z,31.65
2023-04-12T04:51:12.890Z,28.34
2023-04-12T04:52:13.913Z,28.51
2023-04-12T04:53:13.968Z,25.65
2023-04-12T04:54:13.994Z,30.53
2023-04-12T04:55:14.058Z,28.63
2023-04-12T04:56:14.074Z,27.41
2023-04-12T04:57:14.146Z,28.46
2023-04-12T04:58:14.153Z,28.21
2023-04-12T04:59:14.231Z,31.18
2023-04-12T05:00:14.260Z,29.54
2023-04-12T05:01:14.347Z,29.10
2023-04-12T05:02:14.361Z,31.99
2023-04-12T05:03:14.462Z,28.67
2023-04-12T05:03:47.099Z,25.00
2023-04-12T05:04:14.503Z,29.00
2023-04-12T05:04:46.965Z,25.00
2023-04-12T05:05:14.476Z,27.67
2023-04-12T05:05:46.483Z,25.00
2023-04-12T05:06:13.541Z,25.55
2023-04-12T05:06:47.071Z,25.00
2023-04-12T05:07:13.536Z,30.04
2023-04-12T05:07:47.509Z,25.00
2023-04-12T05:08:14.557Z,25.79
2023-04-12T05:08:45.685Z,25.00
2023-04-12T05:09:14.598Z,26.78
2023-04-12T05:09:46.624Z,0.00
2023-04-12T05:10:13.627Z,28.11
2023-04-12T05:10:46.691Z,0.00
2023-04-12T05:11:13.694Z,29.00
2023-04-12T05:11:46.048Z,0.00
2023-04-12T05:12:13.734Z,26.31
2023-04-12T05:12:47.076Z,0.00
2023-04-12T05:13:14.768Z,28.81
2023-04-12T05:13:47.109Z,0.00
2023-04-12T05:14:13.843Z,28.63
2023-04-12T05:14:49.881Z,0.00
2023-04-12T05:15:14.873Z,29.29
2023-04-12T05:15:46.894Z,0.00
2023-04-12T05:16:14.990Z,28.32
2023-04-12T05:16:47.435Z,0.00
2023-04-12T05:17:14.946Z,29.16
2023-04-12T05:17:46.998Z,0.00
2023-04-12T05:18:13.972Z,28.65
2023-04-12T05:18:48.225Z,0.00
2023-04-12T05:19:15.005Z,25.56
2023-04-12T05:19:48.221Z,0.00
2023-04-12T05:20:15.062Z,26.09
2023-04-12T05:21:15.083Z,31.26
2023-04-12T05:22:15.145Z,28.37
2023-04-12T05:23:15.182Z,29.82
2023-04-12T05:24:15.194Z,28.91
2023-04-12T05:25:15.248Z,30.46
2023-04-12T05:26:15.288Z,30.39
2023-04-12T05:26:30.473Z,25.00
2023-04-12T05:27:15.326Z,27.44
2023-04-12T05:27:31.362Z,25.00
2023-04-12T05:28:14.482Z,31.42
2023-04-12T05:28:30.323Z,25.00
2023-04-12T05:29:14.411Z,28.58
2023-04-12T05:29:29.805Z,25.00
2023-04-12T05:30:14.454Z,29.72
2023-04-12T05:30:33.358Z,25.00
2023-04-12T05:31:15.552Z,29.24
2023-04-12T05:31:29.869Z,25.00
2023-04-12T05:32:15.533Z,32.04
2023-04-12T05:32:29.842Z,25.00
2023-04-12T05:33:15.578Z,34.45
2023-04-12T05:34:15.614Z,29.84
2023-04-12T05:34:48.834Z,25.00
2023-04-12T05:35:14.665Z,37.40
2023-04-12T05:35:49.931Z,25.00
2023-04-12T05:36:14.742Z,37.30
2023-04-12T05:36:49.537Z,25.00
2023-04-12T05:37:14.735Z,41.56
2023-04-12T05:37:48.231Z,25.00
2023-04-12T05:38:15.784Z,39.55
2023-04-12T05:38:50.043Z,25.00
2023-04-12T05:39:15.813Z,46.92
2023-04-12T05:39:48.359Z,25.00
2023-04-12T05:40:15.861Z,46.66
2023-04-12T05:40:51.765Z,25.00
2023-04-12T05:41:15.888Z,45.79
2023-04-12T05:41:50.459Z,25.00
2023-04-12T05:42:14.948Z,49.97
2023-04-12T05:42:48.431Z,25.00
2023-04-12T05:43:16.017Z,50.06
2023-04-12T05:43:48.172Z,25.00
2023-04-12T05:44:16.000Z,57.18
2023-04-12T05:44:50.562Z,25.00
2023-04-12T05:45:15.029Z,56.47
2023-04-12T05:45:49.585Z,25.00
2023-04-12T05:46:16.107Z,57.29
2023-04-12T05:46:49.366Z,25.00
2023-04-12T05:47:15.120Z,66.38
2023-04-12T05:47:49.105Z,25.00
2023-04-12T05:48:16.161Z,69.03
2023-04-12T05:49:16.202Z,70.60
2023-04-12T05:50:07.786Z,25.00
2023-04-12T05:50:15.302Z,76.18
2023-04-12T05:51:08.194Z,25.00
2023-04-12T05:51:15.326Z,79.80
2023-04-12T05:52:09.410Z,25.00
2023-04-12T05:52:16.421Z,79.56
2023-04-12T05:53:09.633Z,25.00
2023-04-12T05:53:15.477Z,84.55
2023-04-12T05:54:16.474Z,86.31
2023-04-12T05:55:16.505Z,92.09
2023-04-12T05:56:16.581Z,95.26
2023-04-12T05:57:16.626Z,107.41
2023-04-12T05:57:30.606Z,25.00
2023-04-12T05:58:16.705Z,110.36
2023-04-12T05:59:16.764Z,121.31
2023-04-12T05:59:45.532Z,25.00
2023-04-12T06:00:16.780Z,120.10
2023-04-12T06:01:16.826Z,127.20
2023-04-12T06:02:17.080Z,134.90
2023-04-12T06:03:17.063Z,135.83
2023-04-12T06:04:17.174Z,142.98
2023-04-12T06:05:17.065Z,146.84
2023-04-12T06:06:16.019Z,155.33
2023-04-12T06:07:17.030Z,161.56
2023-04-12T06:08:17.053Z,164.65
2023-04-12T06:09:17.076Z,171.02
2023-04-12T06:10:17.536Z,172.87
2023-04-12T06:11:17.108Z,180.09
2023-04-12T06:12:16.097Z,185.08
2023-04-12T06:12:30.365Z,25.00
2023-04-12T06:13:17.100Z,189.79
2023-04-12T06:14:16.083Z,194.57
2023-04-12T06:15:16.144Z,195.00
2023-04-12T06:16:17.208Z,194.93
2023-04-12T06:17:16.120Z,193.35
2023-04-12T06:18:16.120Z,197.47
2023-04-12T06:19:16.103Z,201.04
2023-04-12T06:20:17.103Z,207.80
2023-04-12T06:21:17.112Z,209.97
2023-04-12T06:22:17.147Z,215.24
2023-04-12T06:22:19.522Z,25.00
2023-04-12T06:23:17.174Z,221.32
2023-04-12T06:24:17.212Z,223.71
2023-04-12T06:25:17.284Z,231.38
2023-04-12T06:26:18.579Z,237.92
2023-04-12T06:27:17.457Z,242.46
2023-04-12T06:28:17.527Z,246.86
2023-04-12T06:29:16.621Z,249.72
2023-04-12T06:30:16.648Z,250.25
2023-04-12T06:31:17.781Z,250.00
2023-04-12T06:32:17.779Z,250.00
2023-04-12T06:33:17.839Z,246.82
2023-04-12T06:34:17.903Z,248.05
2023-04-12T06:35:18.039Z,248.19
2023-04-12T06:36:17.056Z,249.63
2023-04-12T06:37:18.061Z,249.50
2023-04-12T06:38:18.103Z,249.31
2023-04-12T06:39:18.182Z,248.05
2023-04-12T06:40:18.200Z,250.00
2023-04-12T06:41:17.247Z,250.00
2023-04-12T06:42:18.297Z,248.50
2023-04-12T06:43:18.331Z,248.85
2023-04-12T06:43:21.663Z,25.00
2023-04-12T06:44:18.390Z,248.95
2023-04-12T06:45:17.433Z,249.80
2023-04-12T06:46:18.481Z,250.00
2023-04-12T06:47:18.537Z,248.57
2023-04-12T06:48:18.553Z,249.37
2023-04-12T06:48:32.642Z,25.00
2023-04-12T06:49:18.601Z,247.78
2023-04-12T06:49:43.450Z,25.00
2023-04-12T06:50:17.638Z,250.00
2023-04-12T06:50:29.648Z,25.00
2023-04-12T06:51:18.701Z,248.61
2023-04-12T06:51:28.229Z,25.00
2023-04-12T06:52:17.994Z,248.14
2023-04-12T06:52:28.369Z,25.00
2023-04-12T06:53:18.768Z,248.46
2023-04-12T06:54:18.840Z,224.18
2023-04-12T06:55:18.884Z,221.54
2023-04-12T06:56:19.096Z,233.78
2023-04-12T06:57:19.454Z,231.52
2023-04-12T06:58:19.199Z,231.35
2023-04-12T06:59:19.111Z,231.48
2023-04-12T07:00:18.184Z,233.49
2023-04-12T07:01:19.261Z,234.31
2023-04-12T07:02:18.471Z,238.39
2023-04-12T07:03:18.442Z,232.37
2023-04-12T07:04:18.429Z,228.59
2023-04-12T07:05:19.491Z,222.13
2023-04-12T07:06:24.891Z,220.75
2023-04-12T07:07:19.516Z,220.82
2023-04-12T07:08:03.498Z,25.00
2023-04-12T07:08:19.540Z,220.63
2023-04-12T07:09:19.518Z,216.81
2023-04-12T07:10:19.479Z,220.47
2023-04-12T07:11:21.719Z,219.67
2023-04-12T07:12:19.489Z,224.96
2023-04-12T07:13:22.462Z,224.47
2023-04-12T07:14:19.459Z,224.67
2023-04-12T07:15:19.465Z,224.99
2023-04-12T07:16:00.369Z,25.00
2023-04-12T07:16:19.566Z,225.77
2023-04-12T07:17:19.442Z,228.50
2023-04-12T07:18:19.435Z,229.60
2023-04-12T07:19:19.528Z,232.29
2023-04-12T07:20:19.428Z,233.29
2023-04-12T07:21:19.409Z,237.47
2023-04-12T07:22:19.410Z,238.65
2023-04-12T07:23:19.418Z,238.42
2023-04-12T07:24:19.415Z,236.96
2023-04-12T07:25:19.385Z,237.81
2023-04-12T07:26:19.366Z,238.20
2023-04-12T07:27:18.369Z,236.58
2023-04-12T07:28:19.380Z,236.31
2023-04-12T07:28:53.238Z,25.00
2023-04-12T07:29:18.361Z,232.99
2023-04-12T07:30:19.363Z,232.30
2023-04-12T07:31:09.711Z,25.00
2023-04-12T07:31:19.341Z,228.15
2023-04-12T07:32:19.408Z,228.26
2023-04-12T07:33:20.162Z,229.65
2023-04-12T07:33:30.474Z,25.00
2023-04-12T07:34:19.433Z,231.88
2023-04-12T07:35:19.369Z,229.56
2023-04-12T07:36:15.841Z,25.00
2023-04-12T07:36:19.356Z,227.47
2023-04-12T07:37:19.300Z,228.84
2023-04-12T07:38:19.325Z,229.93
2023-04-12T07:39:19.302Z,232.65
2023-04-12T07:40:19.288Z,232.77
2023-04-12T07:40:57.363Z,25.00
2023-04-12T07:41:18.270Z,235.10
2023-04-12T07:41:59.474Z,25.00
2023-04-12T07:42:19.288Z,237.04
2023-04-12T07:42:59.967Z,25.00
2023-04-12T07:43:19.273Z,240.75
2023-04-12T07:44:19.262Z,241.38
2023-04-12T07:45:17.409Z,25.00
2023-04-12T07:45:19.295Z,242.78
2023-04-12T07:46:17.332Z,25.00
2023-04-12T07:46:19.298Z,243.67
2023-04-12T07:47:19.600Z,245.91
2023-04-12T07:47:20.127Z,25.00
2023-04-12T07:48:19.230Z,247.68
2023-04-12T07:48:19.409Z,25.00
2023-04-12T07:49:17.604Z,25.00
2023-04-12T07:49:19.207Z,247.67
2023-04-12T07:50:19.211Z,250.00
2023-04-12T07:51:19.223Z,250.00
2023-04-12T07:51:37.321Z,25.00
2023-04-12T07:52:19.458Z,248.98
2023-04-12T07:53:19.201Z,249.74
2023-04-12T07:53:57.532Z,25.00
2023-04-12T07:54:19.215Z,247.53
2023-04-12T07:55:19.231Z,247.86
2023-04-12T07:56:18.234Z,249.79
2023-04-12T07:56:22.062Z,25.00
2023-04-12T07:57:19.324Z,248.97
2023-04-12T07:58:19.253Z,248.42
2023-04-12T07:59:19.273Z,249.50
2023-04-12T08:00:18.287Z,246.64
2023-04-12T08:01:19.338Z,250.00
2023-04-12T08:02:19.481Z,247.89
2023-04-12T08:03:19.500Z,249.47
2023-04-12T08:04:19.499Z,248.74
2023-04-12T08:04:46.677Z,25.00
2023-04-12T08:05:19.490Z,246.27
2023-04-12T08:06:19.485Z,248.15
2023-04-12T08:07:19.595Z,247.90
2023-04-12T08:08:19.596Z,245.68
2023-04-12T08:09:19.635Z,249.53
2023-04-12T08:10:19.672Z,245.78
2023-04-12T08:11:19.747Z,245.70
2023-04-12T08:12:19.788Z,245.80
2023-04-12T08:13:19.829Z,247.95
2023-04-12T08:14:19.914Z,246.49
2023-04-12T08:15:19.938Z,247.86
2023-04-12T08:16:19.096Z,247.61
2023-04-12T08:17:17.229Z,25.00
2023-04-12T08:17:19.099Z,247.54
2023-04-12T08:18:16.907Z,25.00
2023-04-12T08:18:20.115Z,245.67
2023-04-12T08:19:17.727Z,25.00
2023-04-12T08:19:19.191Z,244.93
2023-04-12T08:20:17.818Z,25.00
2023-04-12T08:20:20.264Z,246.01
2023-04-12T08:21:17.726Z,25.00
2023-04-12T08:21:20.302Z,244.71
2023-04-12T08:22:17.779Z,25.00
2023-04-12T08:22:19.388Z,244.82
2023-04-12T08:23:17.855Z,22.50
2023-04-12T08:23:19.440Z,242.68
2023-04-12T08:24:19.193Z,27.66
2023-04-12T08:24:20.496Z,244.19
2023-04-12T08:25:18.200Z,23.83
2023-04-12T08:25:19.557Z,239.85
2023-04-12T08:26:16.895Z,1.38
2023-04-12T08:26:20.603Z,242.44
2023-04-12T08:27:17.040Z,26.36
2023-04-12T08:27:20.688Z,241.95
2023-04-12T08:28:17.203Z,33.87
2023-04-12T08:28:19.704Z,242.18
2023-04-12T08:29:19.762Z,241.00
2023-04-12T08:30:19.796Z,240.00
2023-04-12T08:31:20.898Z,238.71
2023-04-12T08:32:15.728Z,25.00
2023-04-12T08:32:20.947Z,241.11
2023-04-12T08:33:20.924Z,240.34
2023-04-12T08:34:19.983Z,239.67
2023-04-12T08:35:20.013Z,239.98
2023-04-12T08:36:20.054Z,237.69
2023-04-12T08:37:21.090Z,237.82
2023-04-12T08:38:30.511Z,235.67
2023-04-12T08:39:21.086Z,235.89
2023-04-12T08:40:20.091Z,236.70
2023-04-12T08:41:20.097Z,235.97
2023-04-12T08:41:45.852Z,25.00
2023-04-12T08:42:21.524Z,236.37
2023-04-12T08:43:21.085Z,237.04
2023-04-12T08:44:21.969Z,237.04
2023-04-12T08:45:21.070Z,234.76
2023-04-12T08:46:21.100Z,236.01
2023-04-12T08:47:21.497Z,234.66
2023-04-12T08:48:21.038Z,234.09
2023-04-12T08:49:21.037Z,234.01
2023-04-12T08:50:21.060Z,231.40
2023-04-12T08:51:20.049Z,232.61
2023-04-12T08:52:21.027Z,232.52
2023-04-12T08:53:20.025Z,232.25
2023-04-12T08:54:21.022Z,234.49
2023-04-12T08:54:42.232Z,25.00
2023-04-12T08:55:20.002Z,233.73
2023-04-12T08:56:21.021Z,234.13
2023-04-12T08:57:20.979Z,232.62
2023-04-12T08:58:20.990Z,226.39
2023-04-12T08:59:19.970Z,229.64
2023-04-12T08:59:58.675Z,25.00
2023-04-12T09:00:21.081Z,225.36
2023-04-12T09:01:21.126Z,222.90
2023-04-12T09:02:21.044Z,220.88
2023-04-12T09:03:21.168Z,219.50
2023-04-12T09:04:21.005Z,221.69
2023-04-12T09:05:20.076Z,222.03
2023-04-12T09:06:20.936Z,221.67
2023-04-12T09:07:20.923Z,222.04
2023-04-12T09:08:20.908Z,220.98
2023-04-12T09:09:20.878Z,221.42
2023-04-12T09:10:20.950Z,219.97
2023-04-12T09:11:19.881Z,221.46
2023-04-12T09:12:20.877Z,221.04
2023-04-12T09:13:20.864Z,220.11
2023-04-12T09:14:19.874Z,218.48
2023-04-12T09:15:20.863Z,219.24
2023-04-12T09:16:20.895Z,218.48
2023-04-12T09:17:20.871Z,218.14
2023-04-12T09:18:19.852Z,216.77
2023-04-12T09:19:19.821Z,215.00
2023-04-12T09:20:20.806Z,216.07
2023-04-12T09:21:20.822Z,214.79
2023-04-12T09:22:20.789Z,213.31
2023-04-12T09:23:20.803Z,213.12
2023-04-12T09:24:20.784Z,212.53
2023-04-12T09:25:19.779Z,209.56
2023-04-12T09:26:20.916Z,211.14
2023-04-12T09:27:20.782Z,212.22
2023-04-12T09:28:20.775Z,211.72
2023-04-12T09:29:20.750Z,209.28
2023-04-12T09:30:19.866Z,209.60
2023-04-12T09:31:20.768Z,209.89
2023-04-12T09:32:20.778Z,209.13
2023-04-12T09:33:20.732Z,208.36
2023-04-12T09:34:20.721Z,208.48
2023-04-12T09:35:20.703Z,208.28
2023-04-12T09:36:20.766Z,207.58
2023-04-12T09:37:20.694Z,211.17
2023-04-12T09:38:20.692Z,197.03
2023-04-12T09:39:20.685Z,143.46
2023-04-12T09:40:20.730Z,53.60
2023-04-12T09:41:21.478Z,10.95
2023-04-12T09:41:22.492Z,25.00
2023-04-12T09:42:33.034Z,0.00
2023-04-12T09:42:33.171Z,25.00
2023-04-12T09:43:20.924Z,0.00
2023-04-12T09:43:21.072Z,25.00
2023-04-12T09:44:19.931Z,0.00
2023-04-12T09:44:20.992Z,25.00
2023-04-12T09:45:19.897Z,0.00
2023-04-12T09:45:20.186Z,25.00
2023-04-12T09:46:20.952Z,0.00
2023-04-12T09:46:21.048Z,25.00
2023-04-12T09:47:20.902Z,0.00
2023-04-12T09:47:21.053Z,25.00
2023-04-12T09:48:20.368Z,0.00
2023-04-12T09:48:21.079Z,0.00
2023-04-12T09:49:20.880Z,0.00
2023-04-12T09:49:21.005Z,0.00
2023-04-12T09:50:20.888Z,0.00
2023-04-12T09:50:21.091Z,0.00
2023-04-12T09:51:19.843Z,0.00
2023-04-12T09:51:20.981Z,0.00
2023-04-12T09:52:20.521Z,0.00
2023-04-12T09:52:20.832Z,0.00
2023-04-12T09:53:21.013Z,0.00
2023-04-12T09:53:21.391Z,0.00
2023-04-12T09:54:20.840Z,7.73
2023-04-12T09:54:21.364Z,0.00
2023-04-12T09:55:19.872Z,20.37
2023-04-12T09:55:20.950Z,0.00
2023-04-12T09:56:20.204Z,0.00
2023-04-12T09:56:20.877Z,25.00
2023-04-12T09:57:20.872Z,34.23
2023-04-12T09:57:21.545Z,0.00
2023-04-12T09:58:20.841Z,47.40
2023-04-12T09:58:20.983Z,0.00
2023-04-12T09:59:20.796Z,53.27
2023-04-12T09:59:20.925Z,0.00
2023-04-12T10:00:20.810Z,59.67
2023-04-12T10:00:20.939Z,0.00
2023-04-12T10:01:20.809Z,54.71
2023-04-12T10:01:21.048Z,0.00
2023-04-12T10:02:21.019Z,50.61
2023-04-12T10:03:20.935Z,65.90
2023-04-12T10:03:40.042Z,25.00
2023-04-12T10:04:19.948Z,76.40
2023-04-12T10:05:21.130Z,72.11
2023-04-12T10:06:12.939Z,25.00
2023-04-12T10:06:20.775Z,70.78
2023-04-12T10:07:20.734Z,71.75
2023-04-12T10:08:20.734Z,57.19
2023-04-12T10:09:20.726Z,65.19
2023-04-12T10:10:20.870Z,73.95
2023-04-12T10:11:19.731Z,66.52
2023-04-12T10:12:20.738Z,58.83
2023-04-12T10:13:18.321Z,25.00
2023-04-12T10:13:20.716Z,59.22
2023-04-12T10:14:19.721Z,59.29
2023-04-12T10:15:19.724Z,62.49
2023-04-12T10:16:20.783Z,63.53
2023-04-12T10:16:34.529Z,25.00
2023-04-12T10:17:20.762Z,58.27
2023-04-12T10:17:36.170Z,25.00
2023-04-12T10:18:20.745Z,53.29
2023-04-12T10:18:34.446Z,25.00
2023-04-12T10:19:20.681Z,45.60
2023-04-12T10:19:35.558Z,25.00
2023-04-12T10:20:19.789Z,35.93
2023-04-12T10:20:35.605Z,25.00
2023-04-12T10:21:20.746Z,36.61
2023-04-12T10:21:34.394Z,25.00
2023-04-12T10:22:20.797Z,25.00
2023-04-12T10:22:34.352Z,57.00
2023-04-12T10:23:20.782Z,32.43
2023-04-12T10:23:35.305Z,43.83
2023-04-12T10:24:20.811Z,47.14
2023-04-12T10:24:35.333Z,37.47
2023-04-12T10:25:19.841Z,53.10
2023-04-12T10:25:35.406Z,37.14
2023-04-12T10:26:20.849Z,49.57
2023-04-12T10:26:35.360Z,23.93
2023-04-12T10:27:20.860Z,52.63
2023-04-12T10:27:50.050Z,6.40
2023-04-12T10:28:20.889Z,48.25
2023-04-12T10:29:20.873Z,51.17
2023-04-12T10:30:08.731Z,25.00
2023-04-12T10:30:20.953Z,50.75
2023-04-12T10:30:58.266Z,25.00
2023-04-12T10:31:19.884Z,48.74
2023-04-12T10:32:20.926Z,51.88
2023-04-12T10:33:20.963Z,53.18
2023-04-12T10:34:20.857Z,47.36
2023-04-12T10:35:20.868Z,48.59
2023-04-12T10:36:20.942Z,49.89
2023-04-12T10:37:19.861Z,39.43
2023-04-12T10:38:19.863Z,43.97
2023-04-12T10:38:40.958Z,25.00
2023-04-12T10:39:19.854Z,48.07
2023-04-12T10:39:42.961Z,25.00
2023-04-12T10:40:19.876Z,47.90